CheckWX is a tool to help pilots better visualize weather data.  It is not intended as a substitute for an official pre-flight weather briefing.

13:01:54 UTC

KTPA METAR
Tampa International Airport
Tampa, Florida, USA
Current

19 mins ago

KTPA 181243Z 17008KT 6SM BR FEW004 BKN010 BKN065 OVC250 23/21 A3006 RMK AO2 T02280211
Observed
Feb-18 @ 12:43 UTC
Wind
  • 170° at 8 KTS
Visibility
6 SM
Flight Rules
MVFR
Conditions
Mist
Cloud Levels
  • Few at 400' AGL
  • Broken at 1,000' AGL
  • Broken at 6,500' AGL
  • Overcast at 25,000' AGL
Temperature
23°C / 73°F
Dewpoint
21°C / 70°F
Humidity
89%
Altimeter
30.06" Hg
Pressure
1017.92 hPa
Previous

1 hour ago

KTPA 181158Z 16008KT 7SM BKN006 OVC065 22/21 A3004 RMK AO2 T02220206
Observed
Feb-18 @ 11:58 UTC
Wind
  • 160° at 8 KTS
Visibility
7 SM
Flight Rules
IFR
Cloud Levels
  • Broken at 600' AGL
  • Overcast at 6,500' AGL
Temperature
22°C / 72°F
Dewpoint
21°C / 70°F
Humidity
94%
Altimeter
30.04" Hg
Pressure
1017.32 hPa
Previous

1 hour ago

KTPA 181153Z 17007KT 10SM FEW006 BKN065 22/21 A3004 RMK AO2 SLP172 T02220206 10222 20217 53010
Observed
Feb-18 @ 11:53 UTC
Wind
  • 170° at 7 KTS
Visibility
10 SM
Flight Rules
VFR
Cloud Levels
  • Few at 600' AGL
  • Broken at 6,500' AGL
Temperature
22°C / 72°F
Dewpoint
21°C / 70°F
Humidity
94%
Altimeter
30.04" Hg
Pressure
1017.2 hPa